4XADI LLBS-LLMZ
Flight info
| Callsign | 4XADI |
|---|---|
| Flight time | 0h -26m |
| Altitude | 4000 |
| Route | LLBS NCITY OMMER SOKET MYTAR TARAD ARRAD LLMZ |
| Aircraft | C152/L-C/5100 |
Departure
| Time | 2026-05-06 19:36 |
|---|---|
| Airport | Beersheba (Teyman) Airport (LLBS) |
Arrival
| Time | 2026-05-06 19:10 |
|---|---|
| Airport | Bar Yehuda Airfield (LLMZ) |
| Time | Latitude | Longitude | Altitude | Speed | Heading |
|---|---|---|---|---|---|
| 2026-05-06 19:09 | 31.32972 | 35.38845 | -1244 ft | 0 kts | 9° |
| 2026-05-06 19:16 | 31.32986 | 35.38850 | -1236 ft | 1 kts | 33° |
| 2026-05-06 19:17 | 31.32990 | 35.38854 | -1236 ft | 0 kts | 38° |
| 2026-05-06 19:17 | 31.32991 | 35.38855 | -1236 ft | 1 kts | 42° |
| 2026-05-06 19:18 | 31.32993 | 35.38857 | -1236 ft | 0 kts | 42° |
| 2026-05-06 19:18 | 31.32994 | 35.38859 | -1236 ft | 1 kts | 42° |
| 2026-05-06 19:18 | 31.33019 | 35.38869 | -1235 ft | 7 kts | 1° |
| 2026-05-06 19:18 | 31.33114 | 35.38878 | -1232 ft | 12 kts | 11° |
| 2026-05-06 19:19 | 31.33188 | 35.38894 | -1231 ft | 13 kts | 8° |
| 2026-05-06 19:19 | 31.33276 | 35.38908 | -1229 ft | 11 kts | 7° |
| 2026-05-06 19:19 | 31.33326 | 35.38915 | -1228 ft | 3 kts | 8° |
| 2026-05-06 19:19 | 31.33329 | 35.38915 | -1228 ft | 0 kts | 15° |
| 2026-05-06 19:20 | 31.33339 | 35.38925 | -1227 ft | 7 kts | 56° |
| 2026-05-06 19:20 | 31.33332 | 35.38945 | -1227 ft | 6 kts | 175° |
| 2026-05-06 19:20 | 31.33121 | 35.38906 | -1230 ft | 58 kts | 193° |
| 2026-05-06 19:20 | 31.32640 | 35.38844 | -1113 ft | 75 kts | 181° |
| 2026-05-06 19:21 | 31.32127 | 35.38829 | -905 ft | 75 kts | 178° |
| 2026-05-06 19:21 | 31.31584 | 35.38865 | -737 ft | 78 kts | 178° |
| 2026-05-06 19:21 | 31.31036 | 35.38879 | -538 ft | 77 kts | 180° |
| 2026-05-06 19:21 | 31.30570 | 35.38886 | -175 ft | 50 kts | 182° |
| 2026-05-06 19:22 | 31.30224 | 35.38842 | 13 ft | 54 kts | 192° |
| 2026-05-06 19:22 | 31.29862 | 35.38731 | 207 ft | 53 kts | 197° |
| 2026-05-06 19:22 | 31.29495 | 35.38663 | 390 ft | 54 kts | 189° |
| 2026-05-06 19:22 | 31.29082 | 35.38549 | 530 ft | 66 kts | 195° |
| 2026-05-06 19:23 | 31.28643 | 35.38426 | 731 ft | 62 kts | 193° |
| 2026-05-06 19:23 | 31.28219 | 35.38280 | 940 ft | 60 kts | 198° |
| 2026-05-06 19:23 | 31.27770 | 35.38180 | 1119 ft | 68 kts | 192° |
| 2026-05-06 19:23 | 31.27388 | 35.38078 | 1272 ft | 71 kts | 196° |
| 2026-05-06 19:24 | 31.27331 | 35.38060 | 1281 ft | 73 kts | 197° |
| 2026-05-06 19:26 | 31.26848 | 35.37913 | 1378 ft | 78 kts | 194° |
| 2026-05-06 19:26 | 31.26317 | 35.37734 | 1521 ft | 81 kts | 203° |
| 2026-05-06 19:27 | 31.25771 | 35.37536 | 1700 ft | 77 kts | 191° |
| 2026-05-06 19:27 | 31.25251 | 35.37383 | 1898 ft | 77 kts | 199° |
| 2026-05-06 19:27 | 31.24765 | 35.37206 | 2116 ft | 73 kts | 196° |
| 2026-05-06 19:27 | 31.24291 | 35.36949 | 2267 ft | 77 kts | 219° |
| 2026-05-06 19:28 | 31.23988 | 35.36408 | 2358 ft | 85 kts | 252° |
| 2026-05-06 19:28 | 31.23812 | 35.35761 | 2503 ft | 86 kts | 254° |
| 2026-05-06 19:28 | 31.23698 | 35.35078 | 2656 ft | 81 kts | 268° |
| 2026-05-06 19:28 | 31.23721 | 35.34410 | 2801 ft | 81 kts | 280° |
| 2026-05-06 19:29 | 31.23764 | 35.33812 | 3017 ft | 75 kts | 274° |
| 2026-05-06 19:29 | 31.23825 | 35.33221 | 3209 ft | 71 kts | 276° |
| 2026-05-06 19:29 | 31.23854 | 35.32673 | 3411 ft | 69 kts | 274° |
| 2026-05-06 19:29 | 31.23902 | 35.32040 | 3410 ft | 89 kts | 276° |
| 2026-05-06 19:30 | 31.24012 | 35.31336 | 3542 ft | 84 kts | 283° |
| 2026-05-06 19:30 | 31.24081 | 35.30747 | 3851 ft | 61 kts | 276° |
| 2026-05-06 19:30 | 31.24151 | 35.30204 | 3959 ft | 72 kts | 276° |
| 2026-05-06 19:30 | 31.24179 | 35.29819 | 4078 ft | 70 kts | 279° |
| 2026-05-06 19:31 | 31.24262 | 35.29233 | 4145 ft | 81 kts | 281° |
| 2026-05-06 19:31 | 31.24368 | 35.28538 | 4162 ft | 90 kts | 281° |
| 2026-05-06 19:31 | 31.24710 | 35.26729 | 3962 ft | 103 kts | 289° |
| 2026-05-06 19:32 | 31.24842 | 35.26192 | 3922 ft | 101 kts | 282° |
| 2026-05-06 19:32 | 31.24969 | 35.25439 | 3981 ft | 91 kts | 279° |
| 2026-05-06 19:32 | 31.25075 | 35.24699 | 3955 ft | 94 kts | 280° |
| 2026-05-06 19:32 | 31.25127 | 35.23927 | 3880 ft | 96 kts | 272° |
| 2026-05-06 19:33 | 31.25211 | 35.23168 | 3884 ft | 90 kts | 279° |
| 2026-05-06 19:33 | 31.25300 | 35.22479 | 3960 ft | 81 kts | 277° |
| 2026-05-06 19:33 | 31.25330 | 35.21874 | 4061 ft | 76 kts | 270° |
| 2026-05-06 19:33 | 31.25318 | 35.21216 | 4075 ft | 83 kts | 269° |
| 2026-05-06 19:34 | 31.25380 | 35.20519 | 4045 ft | 89 kts | 280° |
| 2026-05-06 19:34 | 31.25520 | 35.19803 | 4049 ft | 90 kts | 284° |
| 2026-05-06 19:34 | 31.25662 | 35.19087 | 4025 ft | 90 kts | 281° |
| 2026-05-06 19:34 | 31.25808 | 35.18404 | 4057 ft | 84 kts | 284° |
| 2026-05-06 19:35 | 31.25948 | 35.17752 | 4115 ft | 82 kts | 282° |
| 2026-05-06 19:35 | 31.26111 | 35.17085 | 4064 ft | 88 kts | 287° |
| 2026-05-06 19:35 | 31.26265 | 35.16388 | 4057 ft | 90 kts | 282° |
| 2026-05-06 19:35 | 31.26385 | 35.15672 | 4077 ft | 90 kts | 280° |
| 2026-05-06 19:36 | 31.26541 | 35.14962 | 4038 ft | 89 kts | 287° |
| 2026-05-06 19:36 | 31.26743 | 35.14292 | 4026 ft | 86 kts | 290° |
| 2026-05-06 19:36 | 31.26944 | 35.13630 | 4034 ft | 86 kts | 288° |
| 2026-05-06 19:36 | 31.27128 | 35.13003 | 4105 ft | 79 kts | 288° |
| 2026-05-06 19:37 | 31.27286 | 35.12372 | 4125 ft | 83 kts | 284° |
| 2026-05-06 19:37 | 31.27434 | 35.11692 | 4081 ft | 88 kts | 283° |
| 2026-05-06 19:37 | 31.27563 | 35.10996 | 4071 ft | 91 kts | 279° |
| 2026-05-06 19:37 | 31.27645 | 35.10252 | 4046 ft | 94 kts | 276° |
| 2026-05-06 19:38 | 31.27761 | 35.09486 | 3985 ft | 96 kts | 284° |
| 2026-05-06 19:38 | 31.27938 | 35.08761 | 4061 ft | 87 kts | 286° |
| 2026-05-06 19:38 | 31.28090 | 35.08105 | 4109 ft | 86 kts | 284° |
| 2026-05-06 19:38 | 31.28220 | 35.07392 | 4050 ft | 94 kts | 279° |
| 2026-05-06 19:39 | 31.28345 | 35.06647 | 4084 ft | 91 kts | 282° |
| 2026-05-06 19:39 | 31.28487 | 35.05939 | 4146 ft | 86 kts | 284° |
| 2026-05-06 19:39 | 31.28641 | 35.05238 | 4098 ft | 92 kts | 284° |
| 2026-05-06 19:39 | 31.28835 | 35.04532 | 4050 ft | 89 kts | 290° |
| 2026-05-06 19:40 | 31.29077 | 35.03873 | 3981 ft | 88 kts | 294° |
| 2026-05-06 19:40 | 31.29305 | 35.03256 | 4022 ft | 78 kts | 292° |
| 2026-05-06 19:40 | 31.29513 | 35.02688 | 4067 ft | 74 kts | 290° |
| 2026-05-06 19:40 | 31.29696 | 35.02123 | 4049 ft | 78 kts | 291° |
| 2026-05-06 19:41 | 31.29882 | 35.01523 | 4016 ft | 79 kts | 286° |
| 2026-05-06 19:41 | 31.30036 | 35.00919 | 4018 ft | 77 kts | 286° |
| 2026-05-06 19:41 | 31.30190 | 35.00324 | 4002 ft | 77 kts | 286° |
| 2026-05-06 19:41 | 31.30353 | 34.99723 | 3963 ft | 78 kts | 288° |
| 2026-05-06 19:42 | 31.30514 | 34.99153 | 4008 ft | 73 kts | 286° |
| 2026-05-06 19:42 | 31.30683 | 34.98570 | 3972 ft | 76 kts | 291° |
| 2026-05-06 19:42 | 31.30867 | 34.98018 | 4023 ft | 71 kts | 288° |
| 2026-05-06 19:42 | 31.30990 | 34.97463 | 4022 ft | 72 kts | 281° |
| 2026-05-06 19:43 | 31.31052 | 34.96873 | 3998 ft | 77 kts | 277° |
| 2026-05-06 19:43 | 31.31129 | 34.96260 | 4001 ft | 73 kts | 276° |
| 2026-05-06 19:43 | 31.31165 | 34.95685 | 4036 ft | 69 kts | 274° |
| 2026-05-06 19:43 | 31.31199 | 34.95122 | 4052 ft | 72 kts | 271° |
| 2026-05-06 19:44 | 31.31154 | 34.94504 | 3988 ft | 80 kts | 262° |
| 2026-05-06 19:44 | 31.31053 | 34.93851 | 3906 ft | 86 kts | 259° |
| 2026-05-06 19:44 | 31.30988 | 34.93099 | 3702 ft | 97 kts | 270° |
| 2026-05-06 19:44 | 31.31003 | 34.92302 | 3505 ft | 101 kts | 269° |
| 2026-05-06 19:45 | 31.30958 | 34.91495 | 3413 ft | 91 kts | 263° |
| 2026-05-06 19:45 | 31.30864 | 34.90837 | 3565 ft | 83 kts | 255° |
| 2026-05-06 19:45 | 31.30685 | 34.90233 | 3794 ft | 71 kts | 250° |
| 2026-05-06 19:45 | 31.30477 | 34.89750 | 3972 ft | 70 kts | 237° |
| 2026-05-06 19:46 | 31.30162 | 34.89257 | 4067 ft | 81 kts | 233° |
| 2026-05-06 19:46 | 31.29781 | 34.88723 | 4031 ft | 92 kts | 230° |
| 2026-05-06 19:46 | 31.29312 | 34.88149 | 3861 ft | 103 kts | 224° |
| 2026-05-06 19:46 | 31.28806 | 34.87548 | 3697 ft | 105 kts | 230° |
| 2026-05-06 19:47 | 31.28339 | 34.86858 | 3370 ft | 111 kts | 236° |
| 2026-05-06 19:47 | 31.27937 | 34.86104 | 3098 ft | 105 kts | 239° |
| 2026-05-06 19:47 | 31.27516 | 34.85441 | 3000 ft | 95 kts | 232° |
| 2026-05-06 19:47 | 31.27093 | 34.84842 | 2910 ft | 97 kts | 233° |
| 2026-05-06 19:48 | 31.26828 | 34.84132 | 2804 ft | 95 kts | 264° |
| 2026-05-06 19:48 | 31.26974 | 34.83392 | 2762 ft | 93 kts | 297° |
| 2026-05-06 19:48 | 31.27330 | 34.82767 | 2672 ft | 96 kts | 307° |
| 2026-05-06 19:48 | 31.27755 | 34.82079 | 2348 ft | 110 kts | 306° |
| 2026-05-06 19:49 | 31.28239 | 34.81391 | 2100 ft | 100 kts | 314° |
| 2026-05-06 19:49 | 31.28649 | 34.80939 | 2122 ft | 62 kts | 313° |
| 2026-05-06 19:49 | 31.28874 | 34.80555 | 2240 ft | 54 kts | 301° |
| 2026-05-06 19:49 | 31.29043 | 34.80208 | 2339 ft | 47 kts | 294° |
| 2026-05-06 19:50 | 31.29154 | 34.79825 | 2394 ft | 51 kts | 284° |
| 2026-05-06 19:50 | 31.29152 | 34.79379 | 2423 ft | 64 kts | 258° |
| 2026-05-06 19:50 | 31.29001 | 34.78808 | 2379 ft | 81 kts | 254° |
| 2026-05-06 19:50 | 31.28837 | 34.78159 | 2400 ft | 82 kts | 252° |
| 2026-05-06 19:51 | 31.28638 | 34.77565 | 2424 ft | 75 kts | 250° |
| 2026-05-06 19:51 | 31.28480 | 34.76973 | 2324 ft | 78 kts | 257° |
| 2026-05-06 19:51 | 31.28327 | 34.76322 | 2122 ft | 89 kts | 252° |
| 2026-05-06 19:51 | 31.28058 | 34.75675 | 2006 ft | 84 kts | 241° |
| 2026-05-06 19:52 | 31.27725 | 34.75113 | 1826 ft | 90 kts | 234° |
| 2026-05-06 19:52 | 31.27413 | 34.74539 | 1818 ft | 83 kts | 243° |
| 2026-05-06 19:52 | 31.27340 | 34.73950 | 1920 ft | 72 kts | 288° |
| 2026-05-06 19:52 | 31.27563 | 34.73347 | 1863 ft | 82 kts | 296° |
| 2026-05-06 19:53 | 31.27821 | 34.72809 | 1969 ft | 75 kts | 299° |
| 2026-05-06 19:53 | 31.28087 | 34.72313 | 1986 ft | 68 kts | 305° |
| 2026-05-06 19:53 | 31.28384 | 34.71913 | 1927 ft | 63 kts | 315° |
| 2026-05-06 19:53 | 31.28738 | 34.71600 | 1851 ft | 67 kts | 327° |
| 2026-05-06 19:54 | 31.29184 | 34.71317 | 1694 ft | 78 kts | 334° |
| 2026-05-06 19:54 | 31.29730 | 34.71168 | 1536 ft | 82 kts | 0° |
| 2026-05-06 19:54 | 31.30277 | 34.71351 | 1426 ft | 83 kts | 24° |
| 2026-05-06 19:54 | 31.30766 | 34.71684 | 1413 ft | 81 kts | 33° |
| 2026-05-06 19:55 | 31.31223 | 34.72101 | 1353 ft | 83 kts | 42° |
| 2026-05-06 19:55 | 31.31595 | 34.72603 | 1385 ft | 74 kts | 54° |
| 2026-05-06 19:55 | 31.31756 | 34.73186 | 1498 ft | 82 kts | 88° |
| 2026-05-06 19:55 | 31.31625 | 34.73849 | 1607 ft | 86 kts | 117° |
| 2026-05-06 19:56 | 31.31232 | 34.74400 | 1639 ft | 91 kts | 138° |
| 2026-05-06 19:56 | 31.30745 | 34.74851 | 1610 ft | 86 kts | 148° |
| 2026-05-06 19:56 | 31.30294 | 34.75160 | 1630 ft | 66 kts | 154° |
| 2026-05-06 19:56 | 31.29837 | 34.75404 | 1451 ft | 79 kts | 160° |
| 2026-05-06 19:57 | 31.29297 | 34.75596 | 1383 ft | 85 kts | 171° |
| 2026-05-06 19:57 | 31.28771 | 34.75616 | 1468 ft | 71 kts | 186° |
| 2026-05-06 19:57 | 31.28283 | 34.75452 | 1402 ft | 75 kts | 208° |
| 2026-05-06 19:57 | 31.27858 | 34.75124 | 1445 ft | 73 kts | 217° |
| 2026-05-06 19:58 | 31.27455 | 34.74750 | 1477 ft | 76 kts | 221° |
| 2026-05-06 19:58 | 31.27067 | 34.74308 | 1482 ft | 79 kts | 232° |
| 2026-05-06 19:58 | 31.27007 | 34.73744 | 1451 ft | 83 kts | 308° |
| 2026-05-06 19:58 | 31.27548 | 34.73294 | 1132 ft | 103 kts | 332° |
| 2026-05-06 19:59 | 31.28038 | 34.72944 | 849 ft | 68 kts | 323° |
| 2026-05-06 19:59 | 31.28363 | 34.72625 | 696 ft | 61 kts | 319° |
| 2026-05-06 19:59 | 31.28626 | 34.72352 | 654 ft | 38 kts | 315° |
| 2026-05-06 19:59 | 31.28724 | 34.72244 | 654 ft | 0 kts | 318° |
| 2026-05-06 20:00 | 31.28765 | 34.72199 | 655 ft | 13 kts | 315° |
| 2026-05-06 20:00 | 31.28822 | 34.72167 | 654 ft | 8 kts | 14° |
| 2026-05-06 20:00 | 31.28834 | 34.72197 | 654 ft | 0 kts | 116° |
| 2026-05-06 20:21 | 31.28828 | 34.72205 | 654 ft | 8 kts | 141° |
| 2026-05-06 20:21 | 31.28786 | 34.72249 | 654 ft | 16 kts | 137° |
| 2026-05-06 20:21 | 31.28683 | 34.72358 | 653 ft | 24 kts | 137° |
| 2026-05-06 20:21 | 31.28596 | 34.72454 | 655 ft | 11 kts | 134° |
| 2026-05-06 20:22 | 31.28558 | 34.72495 | 656 ft | 5 kts | 137° |
| 2026-05-06 20:22 | 31.28556 | 34.72497 | 656 ft | 0 kts | 139° |
| 2026-05-06 20:22 | 31.28549 | 34.72504 | 657 ft | 5 kts | 140° |
| 2026-05-06 20:23 | 31.28514 | 34.72542 | 656 ft | 0 kts | 120° |
| 2026-05-06 20:23 | 31.28509 | 34.72553 | 656 ft | 5 kts | 115° |
| 2026-05-06 20:23 | 31.28513 | 34.72575 | 656 ft | 0 kts | 30° |